Flight Track Log - Related Links

Times and Time Zones

All times are in EDT time to prevent confusion due to time zone crossing. See the CPA80 flight status page for this flight to view local times or setup timezone preferences in your user account.

Time Position Orientation Groundspeed Altitude Reporting Facility
EDT Latitude Longitude Course Direction KTS MPH feet Rate Location/Type
Wed 04:24:03 PM 61.3167 -150.0167 86° East 290 334 6,300  Level Anchorage Center
Wed 04:25:02 PM 61.3000 -149.8667 103° East 290 334 9,000 2,550 Climbing Anchorage Center
Wed 04:26:03 PM 61.2833 -149.6833 101° East 300 345 11,400 2,380 Climbing Anchorage Center
Wed 04:27:00 PM 61.0168 -148.0591 90° East  Level FlightAware Approximate
Wed 04:27:03 PM 61.2833 -149.5000 90° East 330 380 13,800  Level Anchorage Center
Wed 04:28:00 PM 61.0167 -147.7712 90° East  Level FlightAware Approximate
Wed 04:28:03 PM 61.2833 -149.3000 90° East 350 403 16,300  Level Anchorage Center
Wed 04:29:00 PM 61.0252 -147.4838 86° East  Level FlightAware Approximate
Wed 04:29:03 PM 61.2833 -149.1167 90° East 380 437 17,400  Level Anchorage Center
Wed 04:30:03 PM 61.2833 -148.8833 90° East 430 495 18,800 1,700 Climbing Anchorage Center
Wed 04:31:03 PM 61.2833 -148.6167 90° East 450 518 20,800 1,900 Climbing Anchorage Center
Wed 04:32:03 PM 61.2667 -148.3333 97° East 470 541 22,600 1,750 Climbing Anchorage Center
Wed 04:33:03 PM 61.2667 -148.0500 90° East 490 564 24,300 1,636 Climbing Anchorage Center
Wed 04:34:04 PM 61.2667 -147.7500 90° East 510 587 25,900 1,438 Climbing Anchorage Center
Wed 04:35:04 PM 61.2500 -147.3833 95° East 540 621 27,200 1,550 Climbing Anchorage Center
Wed 04:36:04 PM 61.2500 -147.0667 90° East 550 633 29,000 1,650 Climbing Anchorage Center
Wed 04:37:04 PM 61.2333 -146.7833 97° East 540 621 30,500 1,550 Climbing Anchorage Center
Wed 04:38:04 PM 61.2333 -146.4667 90° East 540 621 32,100 1,250 Climbing Anchorage Center
Wed 04:39:04 PM 61.2167 -146.1500 96° East 550 633 33,000 450 Climbing Anchorage Center
Wed 04:40:04 PM 61.2000 -145.8333 96° East 550 633 33,000  Level Anchorage Center
Wed 04:41:04 PM 61.2000 -145.5167 90° East 540 621 33,000  Level Anchorage Center
Wed 04:42:04 PM 61.1833 -145.2000 96° East 550 633 33,000  Level Anchorage Center
Wed 04:43:04 PM 61.1667 -144.8833 96° East 540 621 33,000  Level Anchorage Center
Wed 04:44:04 PM 61.1667 -144.5667 90° East 550 633 33,000  Level Anchorage Center
Wed 04:45:04 PM 61.1500 -144.2500 96° East 550 633 33,000  Level Anchorage Center
Wed 04:46:04 PM 61.1333 -143.9333 96° East 550 633 33,000  Level Anchorage Center
Wed 04:47:05 PM 61.1167 -143.6167 96° East 550 633 33,000  Level Anchorage Center
Wed 04:48:05 PM 61.1000 -143.3000 96° East 550 633 33,000  Level Anchorage Center
Wed 04:50:05 PM 61.0667 -142.6833 96° East 540 621 33,000  Level Anchorage Center
Wed 04:51:05 PM 61.0333 -142.3667 102° East 550 633 33,000  Level Anchorage Center
Wed 04:52:05 PM 61.0167 -142.0500 96° East 550 633 33,000  Level Anchorage Center
Wed 04:53:05 PM 61.0000 -141.7333 96° East 540 621 33,000  Level Anchorage Center
Wed 04:54:05 PM 60.9833 -141.4167 96° East 550 633 33,000  Level Anchorage Center
Wed 04:55:06 PM 60.9667 -141.1000 96° East 550 633 33,000  Level Anchorage Center
Wed 04:56:05 PM 60.9500 -140.7833 96° East 550 633 33,000  Level Anchorage Center
Wed 04:57:06 PM 60.9333 -140.4667 96° East 550 633 33,000  Level Anchorage Center
Wed 04:59:00 PM 60.9076 -139.9191 95° East  Level FlightAware Approximate
Wed 05:06:00 PM 60.7964 -137.8906 96° East  Level FlightAware Approximate
Wed 05:07:00 PM 60.7780 -137.6020 97° East  Level FlightAware Approximate
Wed 05:08:00 PM 60.7591 -137.3137 98° East  Level FlightAware Approximate
Wed 05:09:00 PM 60.7395 -137.0258 98° East  Level FlightAware Approximate
Wed 05:10:00 PM 60.7193 -136.7383 98° East  Level FlightAware Approximate
Wed 05:11:00 PM 60.6985 -136.4511 98° East  Level FlightAware Approximate
Wed 05:12:00 PM 60.6771 -136.1643 99° East  Level FlightAware Approximate
Wed 05:13:00 PM 60.6551 -135.8778 99° East  Level FlightAware Approximate
Wed 05:14:00 PM 60.6325 -135.5918 99° East  Level FlightAware Approximate
Wed 05:15:00 PM 60.6092 -135.3062 99° East  Level FlightAware Approximate
Wed 05:16:00 PM 60.5854 -135.0210 100° East  Level FlightAware Approximate
Wed 05:17:00 PM 60.5609 -134.7362 100° East  Level FlightAware Approximate
Wed 05:18:00 PM 60.5359 -134.4519 100° East  Level FlightAware Approximate
Wed 05:19:00 PM 60.5102 -134.1680 100° East  Level FlightAware Approximate
Wed 05:20:00 PM 60.4839 -133.8845 101° East  Level FlightAware Approximate
Wed 05:21:00 PM 60.4571 -133.6015 101° East  Level FlightAware Approximate
Wed 05:22:00 PM 60.4296 -133.3190 101° East  Level FlightAware Approximate
Wed 05:23:00 PM 60.4015 -133.0370 101° East  Level FlightAware Approximate
Wed 05:24:00 PM 60.3729 -132.7555 102° East  Level FlightAware Approximate
Wed 05:25:00 PM 60.3436 -132.4745 102° East  Level FlightAware Approximate
Wed 05:26:00 PM 60.3138 -132.1940 102° East  Level FlightAware Approximate
Wed 05:27:00 PM 60.2833 -131.9140 102° East  Level FlightAware Approximate
Wed 05:28:00 PM 60.2523 -131.6345 102° East  Level FlightAware Approximate
Wed 05:29:00 PM 60.2207 -131.3555 103° East  Level FlightAware Approximate
Wed 05:30:00 PM 60.1885 -131.0771 103° East  Level FlightAware Approximate
Wed 05:31:00 PM 60.1558 -130.7993 103° East  Level FlightAware Approximate
Wed 05:32:00 PM 60.1224 -130.5220 103° East  Level FlightAware Approximate
Wed 05:33:00 PM 60.0885 -130.2453 104° East  Level FlightAware Approximate
Wed 05:34:00 PM 60.0540 -129.9691 104° East  Level FlightAware Approximate
Wed 05:35:00 PM 60.0189 -129.6935 104° East  Level FlightAware Approximate
Wed 05:36:00 PM 59.9832 -129.4186 104° East  Level FlightAware Approximate
Wed 05:37:00 PM 59.9470 -129.1442 105° East  Level FlightAware Approximate
Wed 05:38:00 PM 59.9102 -128.8704 105° East  Level FlightAware Approximate
Wed 05:39:00 PM 59.8728 -128.5972 105° East  Level FlightAware Approximate
Wed 05:40:00 PM 59.8349 -128.3247 105° East  Level FlightAware Approximate
Wed 05:41:00 PM 59.7964 -128.0527 106° East  Level FlightAware Approximate
Wed 05:42:00 PM 59.7574 -127.7814 106° East  Level FlightAware Approximate
Wed 05:43:00 PM 59.7178 -127.5108 106° East  Level FlightAware Approximate
Wed 05:44:00 PM 59.6776 -127.2408 106° East  Level FlightAware Approximate
Wed 05:45:00 PM 59.6369 -126.9714 107° East  Level FlightAware Approximate
Wed 05:46:00 PM 59.5956 -126.7027 107° East  Level FlightAware Approximate
Wed 05:47:00 PM 59.5538 -126.4346 107° East  Level FlightAware Approximate
Wed 05:48:00 PM 59.5115 -126.1672 107° East  Level FlightAware Approximate
Wed 05:49:00 PM 59.4689 -125.9003 107° East  Level FlightAware Approximate
Wed 05:50:00 PM 59.4258 -125.6341 108° East  Level FlightAware Approximate
Wed 05:51:00 PM 59.3821 -125.3685 108° East  Level FlightAware Approximate
Wed 05:52:00 PM 59.3379 -125.1037 108° East  Level FlightAware Approximate
Wed 05:53:00 PM 59.2932 -124.8395 108° East  Level FlightAware Approximate
Wed 05:54:00 PM 59.2479 -124.5760 108° East  Level FlightAware Approximate
Wed 05:55:00 PM 59.2021 -124.3133 109° East  Level FlightAware Approximate
Wed 05:56:00 PM 59.1558 -124.0512 109° East  Level FlightAware Approximate
Wed 05:57:00 PM 59.1089 -123.7898 109° East  Level FlightAware Approximate
Wed 05:58:00 PM 59.0616 -123.5292 109° East  Level FlightAware Approximate
Wed 05:59:00 PM 59.0137 -123.2693 110° East  Level FlightAware Approximate
Wed 06:00:00 PM 58.9652 -123.0101 110° East  Level FlightAware Approximate
Wed 06:01:00 PM 58.9163 -122.7517 110° East  Level FlightAware Approximate
Wed 06:02:00 PM 58.8669 -122.4940 110° East  Level FlightAware Approximate
Wed 06:03:00 PM 58.8169 -122.2370 110° East  Level FlightAware Approximate
Wed 06:04:00 PM 58.7664 -121.9808 111° Southeast  Level FlightAware Approximate
Wed 06:05:00 PM 58.7155 -121.7253 111° Southeast  Level FlightAware Approximate
Wed 06:06:00 PM 58.6640 -121.4705 111° Southeast  Level FlightAware Approximate
Wed 06:07:00 PM 58.6120 -121.2165 111° Southeast  Level FlightAware Approximate
Wed 06:08:00 PM 58.5595 -120.9633 112° Southeast  Level FlightAware Approximate
Wed 06:09:00 PM 58.5065 -120.7109 112° Southeast  Level FlightAware Approximate
Wed 06:10:00 PM 58.4531 -120.4592 112° Southeast  Level FlightAware Approximate
Wed 06:11:00 PM 58.3991 -120.2082 112° Southeast  Level FlightAware Approximate
Wed 06:12:00 PM 58.3447 -119.9581 112° Southeast  Level FlightAware Approximate
Wed 06:13:00 PM 58.2897 -119.7087 113° Southeast  Level FlightAware Approximate
Wed 06:13:31 PM 58.6833 -117.8833 114° Southeast 530 610 33,000  Level Edmonton Center
Wed 06:14:00 PM 58.2343 -119.4601 113° Southeast  Level FlightAware Approximate
Wed 06:14:31 PM 58.6167 -117.6000 114° Southeast 540 621 33,000  Level Edmonton Center
Wed 06:15:00 PM 58.1784 -119.2122 113° Southeast  Level FlightAware Approximate
Wed 06:15:31 PM 58.5667 -117.3167 109° East 570 656 33,000  Level Edmonton Center
Wed 06:16:00 PM 58.1220 -118.9652 113° Southeast  Level FlightAware Approximate
Wed 06:17:00 PM 58.0652 -118.7189 113° Southeast  Level FlightAware Approximate
Wed 06:17:31 PM 58.4833 -116.7667 106° East 550 633 33,000  Level Edmonton Center
Wed 06:18:00 PM 58.0078 -118.4734 114° Southeast  Level FlightAware Approximate
Wed 06:18:31 PM 58.4500 -116.4833 103° East 560 644 33,000  Level Edmonton Center
Wed 06:19:30 PM 58.4167 -116.2167 103° East 550 633 33,000  Level Edmonton Center
Wed 06:20:30 PM 58.3667 -115.9000 107° East 550 633 33,000  Level Edmonton Center
Wed 06:21:30 PM 58.3333 -115.6333 103° East 550 633 33,000  Level Edmonton Center
Wed 06:22:30 PM 58.2833 -115.3167 107° East 550 633 33,000  Level Edmonton Center
Wed 06:23:30 PM 58.2500 -115.0500 103° East 550 633 33,000  Level Edmonton Center
Wed 06:24:30 PM 58.2000 -114.7833 109° East 550 633 33,000  Level Edmonton Center
Wed 06:25:30 PM 58.1667 -114.5000 102° East 550 633 33,000  Level Edmonton Center
Wed 06:26:30 PM 58.1167 -114.2000 107° East 540 621 33,000  Level Edmonton Center
Wed 06:27:30 PM 58.0667 -113.9333 109° East 550 633 33,000  Level Edmonton Center
Wed 06:28:30 PM 58.0167 -113.6333 107° East 550 633 33,000  Level Edmonton Center
Wed 06:29:30 PM 57.9833 -113.3667 103° East 550 633 33,000  Level Edmonton Center
Wed 06:30:30 PM 57.9333 -113.1000 109° East 550 633 33,000  Level Edmonton Center
Wed 06:31:30 PM 57.8833 -112.8167 108° East 550 633 33,000  Level Edmonton Center
Wed 06:32:30 PM 57.8333 -112.5500 109° East 550 633 33,000  Level Edmonton Center
Wed 06:33:30 PM 57.7833 -112.2500 107° East 550 633 33,000  Level Edmonton Center
Wed 06:34:30 PM 57.7500 -112.0000 104° East 550 633 33,000  Level Edmonton Center
Wed 06:35:30 PM 57.6833 -111.7333 115° Southeast 540 621 33,000  Level Edmonton Center
Wed 06:36:30 PM 57.6333 -111.4667 109° East 540 621 33,000  Level Edmonton Center
Wed 06:37:30 PM 57.5833 -111.2000 109° East 540 621 33,000  Level Edmonton Center
Wed 06:38:30 PM 57.5500 -110.9167 102° East 540 621 33,000  Level Edmonton Center
Wed 06:39:30 PM 57.4833 -110.6500 115° Southeast 540 621 33,000  Level Edmonton Center
Wed 06:40:30 PM 57.4333 -110.3833 109° East 540 621 33,000  Level Edmonton Center
Wed 06:41:30 PM 57.3667 -110.1167 115° Southeast 540 621 33,000  Level Edmonton Center
Wed 06:42:30 PM 57.2833 -109.8833 123° Southeast 540 621 33,000 350 Level Edmonton Center
Wed 06:43:30 PM 57.2000 -109.6333 122° Southeast 540 621 33,700 950 Climbing Edmonton Center
Wed 06:44:30 PM 57.1333 -109.4000 118° Southeast 540 621 34,900 650 Climbing Edmonton Center
Wed 06:45:30 PM 57.0500 -109.1333 120° Southeast 540 621 35,000 50 Climbing Edmonton Center
Wed 06:46:30 PM 57.0000 -108.8833 110° East 540 621 35,000  Level Edmonton Center
Wed 06:47:30 PM 56.9167 -108.6333 121° Southeast 540 621 35,000  Level Edmonton Center
Wed 06:48:30 PM 56.8333 -108.4000 123° Southeast 540 621 35,000  Level Edmonton Center
Wed 06:49:30 PM 56.7667 -108.1833 119° Southeast 540 621 35,000  Level Edmonton Center
Wed 06:50:30 PM 56.6833 -107.9333 121° Southeast 540 621 35,000  Level Edmonton Center
Wed 06:51:30 PM 56.6167 -107.6667 114° Southeast 540 621 35,000  Level Edmonton Center
Wed 06:52:30 PM 56.5333 -107.4500 125° Southeast 530 610 35,000  Level Edmonton Center
Wed 06:53:30 PM 56.4667 -107.2000 116° Southeast 540 621 35,000  Level Edmonton Center
Wed 06:54:30 PM 56.3833 -106.9833 125° Southeast 530 610 35,000  Level Edmonton Center
Wed 06:55:30 PM 56.3000 -106.7333 121° Southeast 530 610 35,000  Level Edmonton Center
Wed 06:56:30 PM 56.2333 -106.4833 116° Southeast 540 621 35,000  Level Edmonton Center
Wed 06:57:30 PM 56.1500 -106.2667 125° Southeast 540 621 35,000  Level Edmonton Center
Wed 06:58:01 PM 56.1167 -106.2000 132° Southeast 540 621 35,000  Level Winnipeg Center
Wed 06:59:01 PM 56.0333 -105.9667 123° Southeast 540 621 35,000  Level Winnipeg Center
Wed 07:00:01 PM 55.9500 -105.7333 122° Southeast 540 621 35,000  Level Winnipeg Center
Wed 07:01:01 PM 55.8667 -105.5000 122° Southeast 540 621 35,000  Level Winnipeg Center
Wed 07:02:01 PM 55.7833 -105.3000 126° Southeast 540 621 35,000  Level Winnipeg Center
Wed 07:03:01 PM 55.7000 -105.0833 124° Southeast 540 621 35,000  Level Winnipeg Center
Wed 07:04:01 PM 55.6000 -104.8500 127° Southeast 540 621 35,000  Level Winnipeg Center
Wed 07:05:01 PM 55.5167 -104.6500 126° Southeast 540 621 35,000  Level Winnipeg Center
Wed 07:06:01 PM 55.4333 -104.4333 124° Southeast 540 621 35,000  Level Winnipeg Center
Wed 07:06:30 PM 55.3833 -104.3000 123° Southeast 530 610 35,000  Level Edmonton Center
Wed 07:07:01 PM 55.3500 -104.2167 125° Southeast 540 621 35,000  Level Winnipeg Center
Wed 07:08:01 PM 55.2500 -103.9833 127° Southeast 540 621 35,000  Level Winnipeg Center
Wed 07:08:30 PM 55.1833 -103.8667 135° Southeast 530 610 35,000  Level Edmonton Center
Wed 07:09:30 PM 55.1000 -103.6667 126° Southeast 530 610 35,000  Level Edmonton Center
Wed 07:10:01 PM 55.0833 -103.5833 109° East 540 621 35,000  Level Winnipeg Center
Wed 07:11:01 PM 54.9833 -103.3500 127° Southeast 540 621 35,000  Level Winnipeg Center
Wed 07:12:01 PM 54.9000 -103.1667 128° Southeast 540 621 35,000  Level Winnipeg Center
Wed 07:13:01 PM 54.8000 -102.9500 129° Southeast 540 621 35,000  Level Winnipeg Center
Wed 07:14:01 PM 54.7167 -102.7333 124° Southeast 540 621 35,000  Level Winnipeg Center
Wed 07:14:30 PM 54.6500 -102.6000 131° Southeast 530 610 35,000  Level Edmonton Center
Wed 07:15:01 PM 54.6167 -102.5500 139° Southeast 540 621 35,000  Level Winnipeg Center
Wed 07:16:01 PM 54.5333 -102.3333 123° Southeast 530 610 35,000  Level Winnipeg Center
Wed 07:16:30 PM 54.4667 -102.2000 131° Southeast 530 610 35,000  Level Edmonton Center
Wed 07:17:30 PM 54.3833 -102.0000 126° Southeast 530 610 35,000  Level Edmonton Center
Wed 07:18:01 PM 54.3500 -101.9333 131° Southeast 530 610 35,000  Level Winnipeg Center
Wed 07:19:01 PM 54.2500 -101.7500 133° Southeast 530 610 35,000  Level Winnipeg Center
Wed 07:20:01 PM 54.1667 -101.5333 123° Southeast 530 610 35,000  Level Winnipeg Center
Wed 07:20:30 PM 54.1000 -101.4167 134° Southeast 520 598 35,000  Level Edmonton Center
Wed 07:21:30 PM 54.0167 -101.2167 125° Southeast 520 598 35,000  Level Edmonton Center
Wed 07:22:30 PM 53.9167 -101.0167 130° Southeast 520 598 35,000  Level Edmonton Center
Wed 07:23:01 PM 53.8667 -101.0000 169° South 520 598 35,000  Level Winnipeg Center
Wed 07:24:01 PM 53.7333 -100.8667 149° Southeast 520 598 35,000  Level Winnipeg Center
Wed 07:25:01 PM 53.6167 -100.7500 149° Southeast 520 598 35,000  Level Winnipeg Center
Wed 07:26:01 PM 53.4833 -100.6167 149° Southeast 510 587 35,000  Level Winnipeg Center
Wed 07:27:01 PM 53.3833 -100.5000 145° Southeast 520 598 35,000  Level Winnipeg Center
Wed 07:28:01 PM 53.2667 -100.3833 149° Southeast 520 598 35,000  Level Winnipeg Center
Wed 07:29:01 PM 53.1333 -100.2333 146° Southeast 520 598 35,000  Level Winnipeg Center
Wed 07:30:01 PM 53.0167 -100.1167 149° Southeast 500 575 35,000  Level Winnipeg Center
Wed 07:31:01 PM 52.8833 -99.9833 149° Southeast 510 587 35,000  Level Winnipeg Center
Wed 07:32:01 PM 52.7667 -99.8667 149° Southeast 510 587 35,000  Level Winnipeg Center
Wed 07:33:01 PM 52.6667 -99.7500 145° Southeast 510 587 35,000  Level Winnipeg Center
Wed 07:34:01 PM 52.5333 -99.6333 152° Southeast 510 587 35,000  Level Winnipeg Center
Wed 07:35:01 PM 52.4167 -99.5167 149° Southeast 510 587 35,000  Level Winnipeg Center
Wed 07:36:01 PM 52.2833 -99.4000 152° Southeast 510 587 35,000  Level Winnipeg Center
Wed 07:37:01 PM 52.1667 -99.2833 148° Southeast 510 587 35,000  Level Winnipeg Center
Wed 07:38:01 PM 52.0333 -99.1667 152° Southeast 510 587 35,000  Level Winnipeg Center
Wed 07:39:01 PM 51.9167 -99.0500 148° Southeast 510 587 35,000  Level Winnipeg Center
Wed 07:40:01 PM 51.7833 -98.9333 152° Southeast 510 587 35,000  Level Winnipeg Center
Wed 07:41:01 PM 51.6667 -98.8000 145° Southeast 510 587 35,000  Level Winnipeg Center
Wed 07:42:01 PM 51.5333 -98.6833 151° Southeast 510 587 35,000  Level Winnipeg Center
Wed 07:43:01 PM 51.4167 -98.5833 152° Southeast 510 587 35,000  Level Winnipeg Center
Wed 07:44:01 PM 51.3000 -98.4667 148° Southeast 510 587 35,000  Level Winnipeg Center
Wed 07:45:01 PM 51.1833 -98.3500 148° Southeast 510 587 35,000  Level Winnipeg Center
Wed 07:46:01 PM 51.0500 -98.2500 155° Southeast 510 587 35,000  Level Winnipeg Center
Wed 07:47:01 PM 50.9333 -98.1333 148° Southeast 510 587 35,000  Level Winnipeg Center
Wed 07:48:01 PM 50.8167 -98.0167 148° Southeast 510 587 35,000  Level Winnipeg Center
Wed 07:49:01 PM 50.6833 -97.8833 148° Southeast 510 587 35,000  Level Winnipeg Center
Wed 07:50:01 PM 50.5667 -97.8167 160° South 510 587 35,000  Level Winnipeg Center
Wed 07:51:01 PM 50.4333 -97.6667 144° Southeast 510 587 35,000  Level Winnipeg Center
Wed 07:52:01 PM 50.3167 -97.5667 151° Southeast 510 587 35,000  Level Winnipeg Center
Wed 07:53:01 PM 50.1833 -97.4667 154° Southeast 510 587 35,000  Level Winnipeg Center
Wed 07:54:01 PM 50.0667 -97.3500 147° Southeast 510 587 35,000  Level Winnipeg Center
Wed 07:55:01 PM 49.9333 -97.2500 154° Southeast 520 598 35,000  Level Winnipeg Center
Wed 07:56:01 PM 49.8167 -97.1500 151° Southeast 510 587 35,000  Level Winnipeg Center
Wed 07:57:01 PM 49.7000 -97.0167 144° Southeast 510 587 35,000  Level Winnipeg Center
Wed 07:58:01 PM 49.5833 -96.9167 151° Southeast 510 587 35,000  Level Winnipeg Center
Wed 07:59:01 PM 49.4500 -96.7833 147° Southeast 510 587 35,000  Level Winnipeg Center
Wed 08:00:01 PM 49.3333 -96.6833 151° Southeast 500 575 35,000  Level Winnipeg Center
Wed 08:01:01 PM 49.2167 -96.5500 143° Southeast 500 575 35,000  Level Winnipeg Center
Wed 08:02:01 PM 49.1000 -96.4500 151° Southeast 500 575 35,000  Level Winnipeg Center
Wed 08:03:01 PM 48.9667 -96.3333 150° Southeast 500 575 35,000  Level Winnipeg Center
Wed 08:04:01 PM 48.8500 -96.2333 151° Southeast 500 575 35,000  Level Winnipeg Center
Wed 08:05:01 PM 48.7333 -96.1000 143° Southeast 500 575 35,000  Level Winnipeg Center
Wed 08:05:41 PM 48.6903 -96.0694 155° Southeast 504 580 35,000 -59 Level Minneapolis Center
Wed 08:06:42 PM 48.5681 -95.9578 149° Southeast 508 585 34,900 -49 Descending Minneapolis Center
Wed 08:07:44 PM 48.4211 -95.8411 152° Southeast 501 577 34,900  Level Minneapolis Center
Wed 08:08:46 PM 48.2981 -95.7442 152° Southeast 500 575 34,900 48 Level Minneapolis Center
Wed 08:09:48 PM 48.1744 -95.6447 152° Southeast 500 575 35,000 48 Climbing Minneapolis Center
Wed 08:10:51 PM 48.0514 -95.5450 152° Southeast 502 578 35,000 -48 Level Minneapolis Center
Wed 08:11:53 PM 47.9283 -95.4472 152° Southeast 503 579 34,900  Descending Minneapolis Center
Wed 08:12:55 PM 47.8036 -95.3506 152° Southeast 505 581 35,000 48 Climbing Minneapolis Center
Wed 08:13:57 PM 47.6561 -95.2347 152° Southeast 505 581 35,000  Level Minneapolis Center
Wed 08:14:59 PM 47.5333 -95.1383 152° Southeast 503 579 35,000  Level Minneapolis Center
Wed 08:16:01 PM 47.4122 -95.0414 152° Southeast 502 578 35,000  Level Minneapolis Center
Wed 08:17:03 PM 47.2875 -94.9464 153° Southeast 507 583 35,000  Level Minneapolis Center
Wed 08:18:05 PM 47.1636 -94.8522 153° Southeast 506 582 35,000 -48 Level Minneapolis Center
Wed 08:19:07 PM 47.0147 -94.7378 152° Southeast 506 582 34,900 -48 Descending Minneapolis Center
Wed 08:20:09 PM 46.8908 -94.6456 153° Southeast 505 581 34,900  Level Minneapolis Center
Wed 08:21:11 PM 46.7675 -94.5522 153° Southeast 502 578 34,900 44 Level Minneapolis Center
Wed 08:22:26 PM 46.6197 -94.4419 153° Southeast 502 578 35,000  Climbing Minneapolis Center
Wed 08:23:28 PM 46.4969 -94.3522 153° Southeast 500 575 34,900  Descending Minneapolis Center
Wed 08:24:30 PM 46.3750 -94.2611 153° Southeast 497 572 35,000 48 Climbing Minneapolis Center
Wed 08:25:32 PM 46.2278 -94.1539 153° Southeast 495 570 35,000  Level Minneapolis Center
Wed 08:26:34 PM 46.0967 -94.0567 153° Southeast 495 570 35,000  Level Minneapolis Center
Wed 08:27:35 PM 45.9756 -93.9692 153° Southeast 491 565 35,000  Level Minneapolis Center
Wed 08:28:50 PM 45.8303 -93.8631 153° Southeast 490 564 35,000  Level Minneapolis Center
Wed 08:29:52 PM 45.7103 -93.7775 154° Southeast 486 559 35,000  Level Minneapolis Center
Wed 08:30:54 PM 45.5903 -93.6903 153° Southeast 485 558 35,000  Level Minneapolis Center
Wed 08:31:56 PM 45.4700 -93.6050 154° Southeast 485 558 35,000  Level Minneapolis Center
Wed 08:32:58 PM 45.3644 -93.4294 131° Southeast 498 573 35,000  Level Minneapolis Center
Wed 08:34:00 PM 45.2881 -93.2675 124° Southeast 495 570 35,000  Level Minneapolis Center
Wed 08:35:02 PM 45.2133 -93.1044 123° Southeast 493 567 35,000  Level Minneapolis Center
Wed 08:36:04 PM 45.1364 -92.9428 124° Southeast 492 566 35,000  Level Minneapolis Center
Wed 08:37:06 PM 45.0556 -92.7842 126° Southeast 493 567 35,000  Level Minneapolis Center
Wed 08:38:08 PM 44.9733 -92.6319 127° Southeast 486 559 35,000  Level Minneapolis Center
Wed 08:39:10 PM 44.8928 -92.4764 126° Southeast 488 562 35,000  Level Minneapolis Center
Wed 08:40:11 PM 44.7942 -92.2908 127° Southeast 492 566 35,000  Level Minneapolis Center
Wed 08:41:13 PM 44.7131 -92.1381 127° Southeast 489 563 35,000  Level Minneapolis Center
Wed 08:42:15 PM 44.6311 -91.9861 127° Southeast 488 562 35,000  Level Minneapolis Center
Wed 08:43:17 PM 44.5497 -91.8356 127° Southeast 487 560 35,000 -435 Level Minneapolis Center
Wed 08:44:19 PM 44.4686 -91.6853 127° Southeast 486 559 34,100 -871 Descending Minneapolis Center
Wed 08:45:21 PM 44.3869 -91.5339 127° Southeast 487 560 33,200 -968 Descending Minneapolis Center
Wed 08:46:23 PM 44.2883 -91.3531 127° Southeast 489 563 32,100 -823 Descending Minneapolis Center
Wed 08:47:25 PM 44.2203 -91.2297 128° Southeast 486 559 31,500 -532 Descending Minneapolis Center
Wed 08:48:27 PM 44.1236 -91.0544 127° Southeast 481 554 31,000 -242 Descending Minneapolis Center
Wed 08:49:29 PM 44.0433 -90.9097 128° Southeast 477 549 31,000  Level Minneapolis Center
Wed 08:50:31 PM 43.9628 -90.7653 128° Southeast 476 548 31,000  Level Minneapolis Center
Wed 08:51:33 PM 43.8819 -90.6211 128° Southeast 476 548 31,000  Level Minneapolis Center
Wed 08:52:35 PM 43.7933 -90.4628 128° Southeast 478 550 31,000 -97 Level Minneapolis Center
Wed 08:53:37 PM 43.7031 -90.3050 128° Southeast 477 549 30,800 -823 Descending Minneapolis Center
Wed 08:54:39 PM 43.6328 -90.1800 128° Southeast 463 533 29,300 -1,694 Descending Minneapolis Center
Wed 08:55:41 PM 43.5422 -90.0233 129° Southeast 452 520 27,300 -1,742 Descending Minneapolis Center
Wed 08:56:43 PM 43.4683 -89.8961 129° Southeast 435 501 25,700 -1,548 Descending Minneapolis Center
Wed 08:57:45 PM 43.3953 -89.7697 128° Southeast 426 490 24,100 -1,548 Descending Minneapolis Center
Wed 08:58:47 PM 43.3247 -89.6475 128° Southeast 413 475 22,500 -1,548 Descending Chicago Center
Wed 08:59:49 PM 43.2553 -89.5297 129° Southeast 401 461 20,900 -1,645 Descending Chicago Center
Wed 09:00:51 PM 43.1783 -89.3989 129° Southeast 383 441 19,100 -1,548 Descending Chicago Center
Wed 09:01:53 PM 43.0981 -89.3203 144° Southeast 363 418 17,700 -1,452 Descending Chicago Center
Wed 09:02:55 PM 43.0072 -89.2719 159° South 355 409 16,100 -1,113 Descending Chicago Center
Wed 09:03:57 PM 42.9331 -89.1783 137° Southeast 363 418 15,400 -677 Descending Chicago Center
Wed 09:04:59 PM 42.8597 -89.0872 138° Southeast 357 411 14,700 -677 Descending Chicago Center
Wed 09:06:01 PM 42.7742 -88.9825 138° Southeast 355 409 14,000 -339 Descending Chicago Center
Wed 09:07:03 PM 42.7019 -88.8950 138° Southeast 349 402 14,000 -339 Level Chicago Center
Wed 09:08:05 PM 42.6297 -88.8081 138° Southeast 348 400 13,300 -1,113 Descending Chicago Center
Wed 09:09:07 PM 42.5589 -88.7217 138° Southeast 343 395 11,700 -1,452 Descending Chicago Center
Wed 09:10:09 PM 42.4878 -88.6361 138° Southeast 342 394 10,300 -1,016 Descending Chicago Center
Wed 09:11:11 PM 42.4158 -88.5306 133° Southeast 328 377 9,600 -919 Descending Chicago Center
Wed 09:12:13 PM 42.3608 -88.4425 130° Southeast 312 359 8,400 -1,113 Descending Chicago Center
Wed 09:13:15 PM 42.3081 -88.3608 131° Southeast 299 344 7,300 -1,065 Descending Chicago Center
Wed 09:14:17 PM 42.2569 -88.2786 130° Southeast 290 334 6,200 -774 Descending Chicago Center
Wed 09:15:19 PM 42.2081 -88.2019 131° Southeast 278 320 5,700 -581 Descending Chicago Center
Wed 09:16:21 PM 42.1597 -88.1289 132° Southeast 268 308 5,000 -900 Descending Chicago Center
Wed 09:16:59 PM 42.1167 -88.0833 142° Southeast 233 268 4,200 -1,224 Descending Chicago TRACON
Wed 09:17:59 PM 42.0833 -88.0333 132° Southeast 202 232 3,000 -1,095 Descending Chicago TRACON
Wed 09:19:05 PM 42.0333 -87.9833 143° Southeast 162 186 1,900 -942 Descending Chicago TRACON
Wed 09:20:00 PM 42.0000 -87.9500 143° Southeast 154 177 1,100 -873 Descending Chicago TRACON
Wed 09:22:00 PM 41.9817 -87.9067 180° South  Level Estimated

Login

Don't have an account? Register now (free) for customized features, flight alerts, and more!